<?xml version="1.0" encoding="UTF-8" standalone="no" ?>
<gpx xmlns="http://www.topografix.com/GPX/1/1" xmlns:xsi="http://www.w3.org/2001/XMLSchema-instance" xsi:schemaLocation="http://www.topografix.com/GPX/1/1 http://www.topografix.com/GPX/1/1/gpx.xsd" version="1.1" creator="VisuGPX - https://www.visugpx.com">
  <metadata>
    <name>Purgerot autour</name>
    <desc><![CDATA[non effectué, à essayer]]></desc>
  </metadata>
  <trk>
    <name><![CDATA[Purgerot autour on GPSies.com]]></name>
    <trkseg>
      <trkpt lat="47.73952" lon="6.00135">
        <ele>280</ele>
        <time>2010-01-01T00:00:00Z</time>
      </trkpt>
      <trkpt lat="47.74027" lon="6.00196">
        <ele>286</ele>
        <time>2010-01-01T00:00:34Z</time>
      </trkpt>
      <trkpt lat="47.74115" lon="6.0029">
        <ele>294</ele>
        <time>2010-01-01T00:01:17Z</time>
      </trkpt>
      <trkpt lat="47.74173" lon="6.00306">
        <ele>301</ele>
        <time>2010-01-01T00:01:41Z</time>
      </trkpt>
      <trkpt lat="47.74253" lon="6.0022">
        <ele>311</ele>
        <time>2010-01-01T00:02:20Z</time>
      </trkpt>
      <trkpt lat="47.74394" lon="6.00324">
        <ele>321</ele>
        <time>2010-01-01T00:03:23Z</time>
      </trkpt>
      <trkpt lat="47.74482" lon="6.00342">
        <ele>330</ele>
        <time>2010-01-01T00:03:59Z</time>
      </trkpt>
      <trkpt lat="47.7455" lon="6.00414">
        <ele>331</ele>
        <time>2010-01-01T00:04:32Z</time>
      </trkpt>
      <trkpt lat="47.74649" lon="6.00365">
        <ele>328</ele>
        <time>2010-01-01T00:05:14Z</time>
      </trkpt>
      <trkpt lat="47.74633" lon="6.00111">
        <ele>337</ele>
        <time>2010-01-01T00:06:23Z</time>
      </trkpt>
      <trkpt lat="47.7461" lon="6.00025">
        <ele>342</ele>
        <time>2010-01-01T00:06:48Z</time>
      </trkpt>
      <trkpt lat="47.74628" lon="5.99919">
        <ele>339</ele>
        <time>2010-01-01T00:07:17Z</time>
      </trkpt>
      <trkpt lat="47.74621" lon="5.99713">
        <ele>342</ele>
        <time>2010-01-01T00:08:12Z</time>
      </trkpt>
      <trkpt lat="47.74624" lon="5.99627">
        <ele>346</ele>
        <time>2010-01-01T00:08:36Z</time>
      </trkpt>
      <trkpt lat="47.74643" lon="5.99535">
        <ele>341</ele>
        <time>2010-01-01T00:09:02Z</time>
      </trkpt>
      <trkpt lat="47.74635" lon="5.99431">
        <ele>343</ele>
        <time>2010-01-01T00:09:30Z</time>
      </trkpt>
      <trkpt lat="47.74653" lon="5.99314">
        <ele>336</ele>
        <time>2010-01-01T00:10:02Z</time>
      </trkpt>
      <trkpt lat="47.74643" lon="5.9922">
        <ele>338</ele>
        <time>2010-01-01T00:10:28Z</time>
      </trkpt>
      <trkpt lat="47.7468" lon="5.99092">
        <ele>346</ele>
        <time>2010-01-01T00:11:05Z</time>
      </trkpt>
      <trkpt lat="47.74691" lon="5.9904">
        <ele>346</ele>
        <time>2010-01-01T00:11:20Z</time>
      </trkpt>
      <trkpt lat="47.7465" lon="5.98734">
        <ele>359</ele>
        <time>2010-01-01T00:12:44Z</time>
      </trkpt>
      <trkpt lat="47.74624" lon="5.98692">
        <ele>362</ele>
        <time>2010-01-01T00:12:59Z</time>
      </trkpt>
      <trkpt lat="47.74456" lon="5.98156">
        <ele>340</ele>
        <time>2010-01-01T00:15:38Z</time>
      </trkpt>
      <trkpt lat="47.74357" lon="5.98011">
        <ele>337</ele>
        <time>2010-01-01T00:16:34Z</time>
      </trkpt>
      <trkpt lat="47.74357" lon="5.97954">
        <ele>329</ele>
        <time>2010-01-01T00:16:49Z</time>
      </trkpt>
      <trkpt lat="47.74396" lon="5.97903">
        <ele>318</ele>
        <time>2010-01-01T00:17:10Z</time>
      </trkpt>
      <trkpt lat="47.74532" lon="5.97942">
        <ele>311</ele>
        <time>2010-01-01T00:18:06Z</time>
      </trkpt>
      <trkpt lat="47.74506" lon="5.97815">
        <ele>307</ele>
        <time>2010-01-01T00:18:41Z</time>
      </trkpt>
      <trkpt lat="47.74508" lon="5.97657">
        <ele>308</ele>
        <time>2010-01-01T00:19:24Z</time>
      </trkpt>
      <trkpt lat="47.74544" lon="5.97582">
        <ele>308</ele>
        <time>2010-01-01T00:19:49Z</time>
      </trkpt>
      <trkpt lat="47.746" lon="5.97543">
        <ele>310</ele>
        <time>2010-01-01T00:20:13Z</time>
      </trkpt>
      <trkpt lat="47.74719" lon="5.97559">
        <ele>317</ele>
        <time>2010-01-01T00:21:01Z</time>
      </trkpt>
      <trkpt lat="47.74863" lon="5.97563">
        <ele>318</ele>
        <time>2010-01-01T00:21:59Z</time>
      </trkpt>
      <trkpt lat="47.75065" lon="5.97621">
        <ele>318</ele>
        <time>2010-01-01T00:23:21Z</time>
      </trkpt>
      <trkpt lat="47.7527" lon="5.97619">
        <ele>307</ele>
        <time>2010-01-01T00:24:43Z</time>
      </trkpt>
      <trkpt lat="47.75271" lon="5.97705">
        <ele>313</ele>
        <time>2010-01-01T00:25:06Z</time>
      </trkpt>
      <trkpt lat="47.75247" lon="5.97864">
        <ele>311</ele>
        <time>2010-01-01T00:25:50Z</time>
      </trkpt>
      <trkpt lat="47.75358" lon="5.97878">
        <ele>315</ele>
        <time>2010-01-01T00:26:35Z</time>
      </trkpt>
      <trkpt lat="47.75418" lon="5.97916">
        <ele>331</ele>
        <time>2010-01-01T00:27:01Z</time>
      </trkpt>
      <trkpt lat="47.75481" lon="5.98022">
        <ele>330</ele>
        <time>2010-01-01T00:27:39Z</time>
      </trkpt>
      <trkpt lat="47.75513" lon="5.98254">
        <ele>316</ele>
        <time>2010-01-01T00:28:43Z</time>
      </trkpt>
      <trkpt lat="47.7556" lon="5.98433">
        <ele>324</ele>
        <time>2010-01-01T00:29:34Z</time>
      </trkpt>
      <trkpt lat="47.75613" lon="5.98588">
        <ele>334</ele>
        <time>2010-01-01T00:30:21Z</time>
      </trkpt>
      <trkpt lat="47.75699" lon="5.98897">
        <ele>335</ele>
        <time>2010-01-01T00:31:51Z</time>
      </trkpt>
      <trkpt lat="47.75678" lon="5.99082">
        <ele>331</ele>
        <time>2010-01-01T00:32:42Z</time>
      </trkpt>
      <trkpt lat="47.75701" lon="5.99275">
        <ele>325</ele>
        <time>2010-01-01T00:33:35Z</time>
      </trkpt>
      <trkpt lat="47.75772" lon="5.99398">
        <ele>315</ele>
        <time>2010-01-01T00:34:18Z</time>
      </trkpt>
      <trkpt lat="47.75804" lon="5.99442">
        <ele>313</ele>
        <time>2010-01-01T00:34:36Z</time>
      </trkpt>
      <trkpt lat="47.75847" lon="5.99497">
        <ele>308</ele>
        <time>2010-01-01T00:34:59Z</time>
      </trkpt>
      <trkpt lat="47.75854" lon="5.9953">
        <ele>308</ele>
        <time>2010-01-01T00:35:08Z</time>
      </trkpt>
      <trkpt lat="47.75858" lon="5.99574">
        <ele>305</ele>
        <time>2010-01-01T00:35:20Z</time>
      </trkpt>
      <trkpt lat="47.75878" lon="5.9965">
        <ele>305</ele>
        <time>2010-01-01T00:35:42Z</time>
      </trkpt>
      <trkpt lat="47.75849" lon="5.99678">
        <ele>295</ele>
        <time>2010-01-01T00:35:55Z</time>
      </trkpt>
      <trkpt lat="47.75822" lon="5.99679">
        <ele>287</ele>
        <time>2010-01-01T00:36:06Z</time>
      </trkpt>
      <trkpt lat="47.7581" lon="5.99724">
        <ele>284</ele>
        <time>2010-01-01T00:36:19Z</time>
      </trkpt>
      <trkpt lat="47.75793" lon="5.99674">
        <ele>279</ele>
        <time>2010-01-01T00:36:34Z</time>
      </trkpt>
      <trkpt lat="47.75745" lon="5.99686">
        <ele>267</ele>
        <time>2010-01-01T00:36:54Z</time>
      </trkpt>
      <trkpt lat="47.75539" lon="5.99763">
        <ele>247</ele>
        <time>2010-01-01T00:38:19Z</time>
      </trkpt>
      <trkpt lat="47.75427" lon="5.99818">
        <ele>238</ele>
        <time>2010-01-01T00:39:06Z</time>
      </trkpt>
      <trkpt lat="47.7538" lon="5.99751">
        <ele>239</ele>
        <time>2010-01-01T00:39:32Z</time>
      </trkpt>
      <trkpt lat="47.75285" lon="5.99808">
        <ele>227</ele>
        <time>2010-01-01T00:40:13Z</time>
      </trkpt>
      <trkpt lat="47.75116" lon="5.99867">
        <ele>232</ele>
        <time>2010-01-01T00:41:23Z</time>
      </trkpt>
      <trkpt lat="47.75088" lon="5.99868">
        <ele>235</ele>
        <time>2010-01-01T00:41:34Z</time>
      </trkpt>
      <trkpt lat="47.75091" lon="5.99952">
        <ele>233</ele>
        <time>2010-01-01T00:41:56Z</time>
      </trkpt>
      <trkpt lat="47.75077" lon="6.00029">
        <ele>234</ele>
        <time>2010-01-01T00:42:18Z</time>
      </trkpt>
      <trkpt lat="47.75094" lon="6.00222">
        <ele>233</ele>
        <time>2010-01-01T00:43:10Z</time>
      </trkpt>
      <trkpt lat="47.75026" lon="6.00267">
        <ele>237</ele>
        <time>2010-01-01T00:43:40Z</time>
      </trkpt>
      <trkpt lat="47.75011" lon="6.00326">
        <ele>238</ele>
        <time>2010-01-01T00:43:57Z</time>
      </trkpt>
      <trkpt lat="47.74988" lon="6.00463">
        <ele>237</ele>
        <time>2010-01-01T00:44:35Z</time>
      </trkpt>
      <trkpt lat="47.74995" lon="6.00598">
        <ele>233</ele>
        <time>2010-01-01T00:45:11Z</time>
      </trkpt>
      <trkpt lat="47.7515" lon="6.0108">
        <ele>220</ele>
        <time>2010-01-01T00:47:35Z</time>
      </trkpt>
      <trkpt lat="47.75129" lon="6.01354">
        <ele>226</ele>
        <time>2010-01-01T00:48:49Z</time>
      </trkpt>
      <trkpt lat="47.7514" lon="6.01671">
        <ele>222</ele>
        <time>2010-01-01T00:50:15Z</time>
      </trkpt>
      <trkpt lat="47.752" lon="6.01963">
        <ele>217</ele>
        <time>2010-01-01T00:51:37Z</time>
      </trkpt>
      <trkpt lat="47.7531" lon="6.02096">
        <ele>217</ele>
        <time>2010-01-01T00:52:34Z</time>
      </trkpt>
      <trkpt lat="47.75344" lon="6.02214">
        <ele>219</ele>
        <time>2010-01-01T00:53:08Z</time>
      </trkpt>
      <trkpt lat="47.75383" lon="6.02286">
        <ele>216</ele>
        <time>2010-01-01T00:53:33Z</time>
      </trkpt>
      <trkpt lat="47.75395" lon="6.02758">
        <ele>211</ele>
        <time>2010-01-01T00:55:40Z</time>
      </trkpt>
      <trkpt lat="47.75243" lon="6.02911">
        <ele>211</ele>
        <time>2010-01-01T00:56:54Z</time>
      </trkpt>
      <trkpt lat="47.75193" lon="6.02922">
        <ele>213</ele>
        <time>2010-01-01T00:57:14Z</time>
      </trkpt>
      <trkpt lat="47.75162" lon="6.02903">
        <ele>215</ele>
        <time>2010-01-01T00:57:28Z</time>
      </trkpt>
      <trkpt lat="47.75023" lon="6.02932">
        <ele>214</ele>
        <time>2010-01-01T00:58:24Z</time>
      </trkpt>
      <trkpt lat="47.74682" lon="6.02885">
        <ele>218</ele>
        <time>2010-01-01T01:00:41Z</time>
      </trkpt>
      <trkpt lat="47.74513" lon="6.02936">
        <ele>214</ele>
        <time>2010-01-01T01:01:50Z</time>
      </trkpt>
      <trkpt lat="47.74478" lon="6.02783">
        <ele>216</ele>
        <time>2010-01-01T01:02:33Z</time>
      </trkpt>
      <trkpt lat="47.74303" lon="6.0255">
        <ele>222</ele>
        <time>2010-01-01T01:04:07Z</time>
      </trkpt>
      <trkpt lat="47.74218" lon="6.02476">
        <ele>219</ele>
        <time>2010-01-01T01:04:47Z</time>
      </trkpt>
      <trkpt lat="47.7416" lon="6.02319">
        <ele>220</ele>
        <time>2010-01-01T01:05:35Z</time>
      </trkpt>
      <trkpt lat="47.7403" lon="6.02233">
        <ele>220</ele>
        <time>2010-01-01T01:06:32Z</time>
      </trkpt>
      <trkpt lat="47.74041" lon="6.01844">
        <ele>240</ele>
        <time>2010-01-01T01:08:17Z</time>
      </trkpt>
      <trkpt lat="47.74" lon="6.01388">
        <ele>260</ele>
        <time>2010-01-01T01:10:21Z</time>
      </trkpt>
      <trkpt lat="47.73941" lon="6.00873">
        <ele>273</ele>
        <time>2010-01-01T01:12:41Z</time>
      </trkpt>
      <trkpt lat="47.73958" lon="6.00814">
        <ele>272</ele>
        <time>2010-01-01T01:12:59Z</time>
      </trkpt>
      <trkpt lat="47.74066" lon="6.00657">
        <ele>273</ele>
        <time>2010-01-01T01:13:59Z</time>
      </trkpt>
      <trkpt lat="47.74109" lon="6.00522">
        <ele>282</ele>
        <time>2010-01-01T01:14:39Z</time>
      </trkpt>
      <trkpt lat="47.74046" lon="6.00407">
        <ele>284</ele>
        <time>2010-01-01T01:15:19Z</time>
      </trkpt>
      <trkpt lat="47.73931" lon="6.00324">
        <ele>279</ele>
        <time>2010-01-01T01:16:10Z</time>
      </trkpt>
      <trkpt lat="47.73953" lon="6.00136">
        <ele>280</ele>
        <time>2010-01-01T01:17:02Z</time>
      </trkpt>
    </trkseg>
  </trk>
</gpx>